Time;durP1;ratioP1;P1;durP2;ratioP2;P2;SDS_P1;SDS_P2;PMS_P1;PMS_P2;Temp;Humidity;BMP_temperature;BMP_pressure;BME280_temperature;BME280_humidity;BME280_pressure;Samples;Min_cycle;Max_cycle;Signal;HPM_P1;HPM_P2
2021/05/07 00:01:49;;;;;;;4.70;3.83;;;10.00;99.90;;;;;;6217672;23;20539;-83
2021/05/07 00:04:21;;;;;;;7.57;5.30;;;10.00;99.90;;;;;;6217773;23;20152;-82
2021/05/07 00:06:51;;;;;;;10.50;4.93;;;9.90;99.90;;;;;;6218403;23;20145;-82
2021/05/07 00:09:17;;;;;;;5.90;4.20;;;9.90;99.90;;;;;;6217552;23;20264;-83
2021/05/07 00:11:46;;;;;;;8.23;4.40;;;9.90;99.90;;;;;;6215929;23;20279;-82
2021/05/07 00:14:12;;;;;;;7.50;5.13;;;9.80;99.90;;;;;;6216769;23;20536;-84
2021/05/07 00:16:37;;;;;;;7.67;4.90;;;9.80;99.90;;;;;;6191871;23;20156;-82
2021/05/07 00:19:06;;;;;;;7.60;5.20;;;9.80;99.90;;;;;;6217448;23;20668;-82
2021/05/07 00:21:33;;;;;;;5.45;4.43;;;9.80;99.90;;;;;;6218678;23;20594;-83
2021/05/07 00:24:02;;;;;;;8.10;5.00;;;9.80;99.90;;;;;;6191564;23;20179;-83
2021/05/07 00:26:28;;;;;;;7.07;4.55;;;9.80;99.90;;;;;;6217429;23;20153;-83
2021/05/07 00:28:53;;;;;;;6.23;3.87;;;9.80;99.90;;;;;;6219470;23;20207;-83
2021/05/07 00:31:20;;;;;;;7.30;4.50;;;9.80;99.90;;;;;;6219416;23;20165;-83
2021/05/07 00:33:45;;;;;;;6.28;4.95;;;9.80;99.90;;;;;;6193895;23;20153;-82
2021/05/07 00:36:13;;;;;;;4.70;4.10;;;9.70;99.90;;;;;;6218884;23;20199;-82
2021/05/07 00:38:39;;;;;;;10.07;4.47;;;9.70;99.90;;;;;;6219528;23;20247;-83
2021/05/07 00:41:07;;;;;;;4.87;4.37;;;9.70;99.90;;;;;;6218059;23;20242;-83
2021/05/07 00:43:33;;;;;;;4.68;3.75;;;9.70;99.90;;;;;;6218650;23;20153;-84
2021/05/07 00:46:01;;;;;;;7.00;4.70;;;9.70;99.90;;;;;;6192512;23;20152;-82
2021/05/07 00:48:30;;;;;;;6.03;4.22;;;9.80;99.90;;;;;;6220516;23;20196;-82
2021/05/07 00:50:58;;;;;;;6.00;4.30;;;9.70;99.90;;;;;;6217200;23;20167;-82
2021/05/07 00:53:27;;;;;;;5.00;3.78;;;9.80;99.90;;;;;;6216269;23;20629;-83
2021/05/07 00:55:53;;;;;;;4.95;3.78;;;9.70;99.90;;;;;;6217163;23;20424;-83
2021/05/07 00:58:19;;;;;;;5.37;3.67;;;9.80;99.90;;;;;;6215030;23;20283;-82
2021/05/07 01:00:49;;;;;;;6.32;4.80;;;9.70;99.90;;;;;;6190466;23;20176;-82
2021/05/07 01:03:15;;;;;;;6.10;4.40;;;9.70;99.90;;;;;;6216080;23;20149;-83
2021/05/07 01:05:40;;;;;;;5.77;4.30;;;9.70;99.90;;;;;;6218782;23;20149;-83
2021/05/07 01:08:09;;;;;;;6.70;4.10;;;9.70;99.90;;;;;;6219285;23;20164;-84
2021/05/07 01:10:35;;;;;;;6.88;3.78;;;9.70;99.90;;;;;;6217643;23;20779;-83
2021/05/07 01:13:03;;;;;;;6.73;4.20;;;9.70;99.90;;;;;;6192390;23;20191;-83
2021/05/07 01:15:29;;;;;;;6.95;4.45;;;9.70;99.90;;;;;;6218292;23;20386;-83
2021/05/07 01:17:58;;;;;;;9.10;4.93;;;9.70;99.90;;;;;;6220835;23;20153;-84
2021/05/07 01:20:29;;;;;;;6.15;4.60;;;9.70;99.90;;;;;;6220909;23;20175;-83
2021/05/07 01:23:02;;;;;;;8.75;5.18;;;9.80;99.90;;;;;;6193302;23;20156;-83
2021/05/07 01:25:31;;;;;;;7.00;4.40;;;9.80;99.90;;;;;;6220679;23;20583;-84
2021/05/07 01:28:04;;;;;;;5.57;4.05;;;9.80;99.90;;;;;;6193426;23;20184;-83
2021/05/07 01:30:41;;;;;;;9.40;4.88;;;9.80;99.90;;;;;;6220060;23;20610;-83
2021/05/07 01:33:10;;;;;;;5.20;4.28;;;9.80;99.90;;;;;;6193489;23;20141;-83
2021/05/07 01:35:36;;;;;;;6.88;4.85;;;9.70;99.90;;;;;;6219922;23;20140;-83
2021/05/07 01:38:09;;;;;;;6.83;5.13;;;9.70;99.90;;;;;;6219218;23;20169;-84
2021/05/07 01:40:37;;;;;;;7.28;4.57;;;9.70;99.90;;;;;;6192056;23;20422;-84
2021/05/07 01:43:06;;;;;;;5.70;4.75;;;9.70;99.90;;;;;;6218068;23;20145;-83
2021/05/07 01:45:35;;;;;;;8.20;4.97;;;9.60;99.90;;;;;;6217706;23;20153;-84
2021/05/07 01:48:01;;;;;;;8.95;5.00;;;9.70;99.90;;;;;;6191553;23;20184;-83
2021/05/07 01:50:29;;;;;;;7.18;4.50;;;9.60;99.90;;;;;;6217300;23;20494;-83
2021/05/07 01:52:59;;;;;;;7.43;5.30;;;9.60;99.90;;;;;;6190640;23;20179;-83
2021/05/07 01:55:27;;;;;;;8.13;4.65;;;9.60;99.90;;;;;;6217846;23;20557;-84
2021/05/07 01:57:59;;;;;;;7.28;4.60;;;9.50;99.90;;;;;;6218343;23;20186;-83
2021/05/07 02:00:43;;;;;;;;;;;;;;;;;;;;;
2021/05/07 02:03:10;;;;;;;13.50;4.20;;;9.60;99.90;;;;;;6218707;23;20216;-83
2021/05/07 02:05:35;;;;;;;6.55;4.30;;;9.60;99.90;;;;;;6218007;23;20168;-83
2021/05/07 02:08:04;;;;;;;6.70;5.23;;;9.60;99.90;;;;;;6216436;23;20188;-83
2021/05/07 02:10:31;;;;;;;7.82;5.60;;;9.70;99.90;;;;;;6168055;23;20169;-84
2021/05/07 02:12:59;;;;;;;5.22;4.22;;;9.70;99.90;;;;;;6192025;23;20153;-83
2021/05/07 02:15:26;;;;;;;6.75;4.40;;;9.70;99.90;;;;;;6191807;23;20156;-82
2021/05/07 02:17:52;;;;;;;8.40;5.05;;;9.70;99.90;;;;;;6218373;23;20153;-83
2021/05/07 02:20:21;;;;;;;6.63;4.72;;;9.70;99.90;;;;;;6191444;23;20173;-84
2021/05/07 02:22:47;;;;;;;12.32;5.03;;;9.70;99.90;;;;;;6219123;23;20160;-83
2021/05/07 02:25:15;;;;;;;6.45;4.53;;;9.80;99.90;;;;;;6220195;23;20247;-83
2021/05/07 02:27:40;;;;;;;7.22;4.97;;;9.80;99.90;;;;;;6192914;23;20568;-83
2021/05/07 02:30:11;;;;;;;4.93;4.40;;;9.80;99.90;;;;;;6219674;23;20180;-83
2021/05/07 02:32:36;;;;;;;7.45;4.18;;;9.70;99.90;;;;;;6219087;23;20208;-84
2021/05/07 02:35:06;;;;;;;6.47;4.07;;;9.70;99.90;;;;;;6219091;23;20152;-83
2021/05/07 02:37:32;;;;;;;6.63;4.85;;;9.60;99.90;;;;;;6219078;23;20172;-83
2021/05/07 02:39:57;;;;;;;6.15;4.18;;;9.60;99.90;;;;;;6218566;23;20165;-83
2021/05/07 02:42:23;;;;;;;8.30;5.23;;;9.70;99.90;;;;;;6222309;23;20156;-83
2021/05/07 02:44:48;;;;;;;7.77;4.67;;;9.70;99.90;;;;;;6219099;23;20639;-82
2021/05/07 02:47:14;;;;;;;6.40;4.70;;;9.70;99.90;;;;;;6220314;23;20183;-84
2021/05/07 02:49:40;;;;;;;8.00;4.90;;;9.70;99.90;;;;;;6218864;23;20602;-83
2021/05/07 02:52:08;;;;;;;9.85;5.50;;;9.70;99.90;;;;;;6219421;23;20911;-83
2021/05/07 02:54:34;;;;;;;8.15;4.50;;;9.60;99.90;;;;;;6220381;23;20575;-83
2021/05/07 02:57:00;;;;;;;7.27;4.40;;;9.60;99.90;;;;;;6221404;23;20209;-83
2021/05/07 02:59:26;;;;;;;8.32;5.43;;;9.60;99.90;;;;;;6194135;23;20145;-83
2021/05/07 03:01:52;;;;;;;7.18;5.22;;;9.60;99.90;;;;;;6192293;23;20173;-84
2021/05/07 03:04:19;;;;;;;9.10;5.97;;;9.50;99.90;;;;;;6218220;23;20141;-84
2021/05/07 03:06:51;;;;;;;13.02;4.97;;;9.50;99.90;;;;;;6192925;23;20175;-85
2021/05/07 03:09:17;;;;;;;7.88;5.43;;;9.50;99.90;;;;;;6219063;23;20517;-84
2021/05/07 03:11:43;;;;;;;7.15;5.10;;;9.50;99.90;;;;;;6220243;23;20511;-84
2021/05/07 03:14:09;;;;;;;10.20;5.07;;;9.50;99.90;;;;;;6234931;23;20149;-83
2021/05/07 03:16:35;;;;;;;8.25;4.72;;;9.50;99.90;;;;;;6224991;23;20152;-84
2021/05/07 03:19:02;;;;;;;6.93;5.10;;;9.50;99.90;;;;;;6219602;23;20153;-84
2021/05/07 03:21:28;;;;;;;10.85;4.80;;;9.50;99.90;;;;;;6217638;23;20448;-83
2021/05/07 03:23:53;;;;;;;9.90;5.87;;;9.60;99.90;;;;;;6218459;23;20159;-84
2021/05/07 03:26:19;;;;;;;9.33;5.80;;;9.60;99.90;;;;;;6216770;23;20529;-84
2021/05/07 03:28:45;;;;;;;7.70;5.20;;;9.50;99.90;;;;;;6222524;23;20169;-84
2021/05/07 03:31:10;;;;;;;9.53;5.93;;;9.50;99.90;;;;;;6227095;23;20180;-84
2021/05/07 03:33:37;;;;;;;9.03;5.33;;;9.50;99.90;;;;;;6218443;23;20286;-84
2021/05/07 03:36:03;;;;;;;7.10;5.75;;;9.50;99.90;;;;;;6193280;23;20164;-84
2021/05/07 03:38:29;;;;;;;7.55;5.00;;;9.50;99.90;;;;;;6192393;23;20264;-82
2021/05/07 03:40:54;;;;;;;9.33;6.23;;;9.60;99.90;;;;;;6192378;23;20506;-83
2021/05/07 03:43:21;;;;;;;13.10;5.80;;;9.60;99.90;;;;;;6219027;23;20453;-83
2021/05/07 03:45:46;;;;;;;7.07;4.80;;;9.60;99.90;;;;;;6219570;23;20164;-84
2021/05/07 03:48:17;;;;;;;12.33;6.30;;;9.70;99.90;;;;;;6219068;23;20606;-83
2021/05/07 03:50:42;;;;;;;9.90;6.10;;;9.70;99.90;;;;;;6218366;23;20165;-83
2021/05/07 03:53:12;;;;;;;7.00;5.40;;;9.70;99.90;;;;;;6221207;23;20234;-83
2021/05/07 03:55:41;;;;;;;6.80;5.25;;;9.70;99.90;;;;;;6220937;23;20149;-84
2021/05/07 03:58:07;;;;;;;7.03;4.68;;;9.70;99.90;;;;;;6220131;23;20211;-83
2021/05/07 04:00:33;;;;;;;6.30;5.20;;;9.70;99.90;;;;;;6219650;23;20251;-83
2021/05/07 04:02:59;;;;;;;10.20;5.95;;;9.60;99.90;;;;;;6193304;23;20220;-82
2021/05/07 04:05:25;;;;;;;8.48;5.35;;;9.40;99.90;;;;;;6192816;23;20245;-83
2021/05/07 04:10:40;;;;;;;8.82;5.80;;;9.50;99.90;;;;;;6220727;23;20499;-83
2021/05/07 04:15:31;;;;;;;7.90;6.13;;;9.50;99.90;;;;;;6221609;23;20153;-84
2021/05/07 04:17:56;;;;;;;7.10;6.00;;;9.60;99.90;;;;;;6170668;23;20153;-84
2021/05/07 04:20:22;;;;;;;10.80;6.57;;;9.70;99.90;;;;;;6220560;23;20265;-84
2021/05/07 04:22:48;;;;;;;16.90;7.27;;;9.70;99.90;;;;;;6194374;23;20163;-84
2021/05/07 04:25:13;;;;;;;8.37;6.17;;;9.70;99.90;;;;;;6219371;23;20641;-84
2021/05/07 04:27:39;;;;;;;8.20;6.00;;;9.70;99.90;;;;;;6219396;23;20693;-85
2021/05/07 04:30:06;;;;;;;9.40;5.73;;;9.80;99.90;;;;;;6219114;23;20157;-83
2021/05/07 04:32:32;;;;;;;9.13;5.53;;;9.80;99.90;;;;;;6219173;23;20207;-84
2021/05/07 04:34:58;;;;;;;8.10;5.05;;;9.80;99.90;;;;;;6218636;23;20152;-82
2021/05/07 04:37:24;;;;;;;7.27;4.83;;;9.80;99.90;;;;;;6231947;23;20169;-83
2021/05/07 04:39:49;;;;;;;7.80;4.90;;;9.70;99.90;;;;;;6222260;23;20220;-83
2021/05/07 04:42:15;;;;;;;7.60;4.93;;;9.80;99.90;;;;;;6219606;23;20400;-84
2021/05/07 04:44:43;;;;;;;17.07;5.80;;;9.80;99.90;;;;;;6218501;23;20152;-85
2021/05/07 04:47:10;;;;;;;8.65;5.75;;;9.90;99.90;;;;;;6220480;23;20176;-83
2021/05/07 04:49:36;;;;;;;8.18;5.50;;;9.90;99.90;;;;;;6225079;23;20155;-85
2021/05/07 04:52:02;;;;;;;6.97;5.30;;;9.90;99.90;;;;;;6221850;23;20184;-84
2021/05/07 04:54:28;;;;;;;8.05;5.47;;;9.90;99.90;;;;;;6220958;23;20148;-84
2021/05/07 04:56:56;;;;;;;6.33;4.20;;;9.90;99.90;;;;;;6169112;23;20181;-84
2021/05/07 04:59:22;;;;;;;6.65;5.07;;;9.90;99.90;;;;;;6221802;23;20153;-84
2021/05/07 05:01:47;;;;;;;6.57;5.00;;;9.90;99.90;;;;;;6220609;23;20228;-84
2021/05/07 05:04:13;;;;;;;7.07;4.73;;;9.80;99.90;;;;;;6221304;23;20196;-84
2021/05/07 05:06:38;;;;;;;7.10;5.40;;;9.80;99.90;;;;;;6221700;23;20169;-84
2021/05/07 05:09:04;;;;;;;6.60;3.80;;;9.40;99.90;;;;;;6221995;23;20176;-84
2021/05/07 05:11:29;;;;;;;7.03;5.37;;;9.40;99.90;;;;;;6193077;23;20179;-84
2021/05/07 05:13:55;;;;;;;12.13;5.37;;;9.40;99.90;;;;;;6219957;23;20141;-83
2021/05/07 05:16:20;;;;;;;8.77;4.87;;;9.40;99.90;;;;;;6218620;23;20152;-84
2021/05/07 05:18:46;;;;;;;6.77;4.53;;;9.20;99.90;;;;;;6194868;23;20215;-83
2021/05/07 05:21:12;;;;;;;8.20;4.23;;;9.10;99.90;;;;;;6219841;23;20205;-84
2021/05/07 05:23:41;;;;;;;6.70;3.87;;;9.20;99.90;;;;;;6221152;23;20149;-84
2021/05/07 05:26:07;;;;;;;8.80;5.07;;;9.10;99.90;;;;;;6219836;23;20161;-83
2021/05/07 05:28:35;;;;;;;5.70;4.10;;;9.20;99.90;;;;;;6219016;23;20176;-83
2021/05/07 05:31:01;;;;;;;6.65;4.75;;;9.10;99.90;;;;;;6219119;23;20404;-83
2021/05/07 05:33:28;;;;;;;7.53;3.80;;;8.80;99.90;;;;;;6193337;23;20215;-83
2021/05/07 05:35:53;;;;;;;7.97;4.60;;;8.90;99.90;;;;;;6169604;23;20183;-83
2021/05/07 05:38:19;;;;;;;5.47;4.23;;;8.90;99.90;;;;;;6219790;23;20172;-83
2021/05/07 05:40:44;;;;;;;6.83;3.90;;;9.00;99.90;;;;;;6219041;23;20183;-83
2021/05/07 05:43:10;;;;;;;4.10;3.13;;;9.00;99.90;;;;;;6193948;23;20633;-84
2021/05/07 05:45:36;;;;;;;4.53;3.87;;;9.30;99.90;;;;;;6220976;23;20149;-83
2021/05/07 05:48:13;;;;;;;5.27;3.73;;;9.30;99.90;;;;;;6194060;23;20550;-85
2021/05/07 05:50:42;;;;;;;5.00;3.63;;;9.10;99.90;;;;;;6222842;23;20204;-85
2021/05/07 05:53:09;;;;;;;8.48;4.18;;;9.10;99.90;;;;;;6196055;23;20207;-85
2021/05/07 05:55:36;;;;;;;4.50;3.17;;;9.00;99.90;;;;;;6196939;23;20161;-83
2021/05/07 05:58:05;;;;;;;5.35;3.20;;;8.70;99.90;;;;;;6224956;23;20156;-84
2021/05/07 06:00:31;;;;;;;7.40;3.67;;;8.70;99.90;;;;;;6198715;23;20175;-84
2021/05/07 06:02:56;;;;;;;2.97;2.67;;;9.00;99.90;;;;;;6173473;23;20188;-84
2021/05/07 06:05:22;;;;;;;5.60;2.90;;;8.90;99.90;;;;;;6223945;23;20426;-84
2021/05/07 06:07:48;;;;;;;8.17;4.13;;;9.10;99.90;;;;;;6225713;23;20203;-84
2021/05/07 06:10:15;;;;;;;4.35;3.00;;;9.00;99.90;;;;;;6224599;23;20410;-85
2021/05/07 06:12:42;;;;;;;4.70;3.30;;;8.70;99.90;;;;;;6198510;23;20149;-84
2021/05/07 06:15:08;;;;;;;4.00;2.90;;;8.80;99.90;;;;;;6195350;23;20168;-84
2021/05/07 06:17:34;;;;;;;2.60;2.40;;;8.90;99.90;;;;;;6196129;23;20157;-84
2021/05/07 06:20:08;;;;;;;7.32;3.30;;;8.70;99.90;;;;;;6221640;23;20156;-84
2021/05/07 06:22:34;;;;;;;3.33;3.03;;;8.70;99.90;;;;;;6222418;23;20145;-84
2021/05/07 06:25:00;;;;;;;8.10;3.08;;;8.70;99.90;;;;;;6223073;23;20153;-84
2021/05/07 06:27:26;;;;;;;5.40;3.20;;;8.70;99.90;;;;;;6195526;23;20234;-83
2021/05/07 06:29:52;;;;;;;4.13;3.00;;;8.50;99.90;;;;;;6195767;23;20176;-84
2021/05/07 06:32:18;;;;;;;4.57;2.70;;;8.30;99.90;;;;;;6219350;23;20169;-83
2021/05/07 06:34:43;;;;;;;3.10;2.65;;;8.50;99.90;;;;;;6194746;23;20156;-83
2021/05/07 06:37:09;;;;;;;5.23;2.80;;;8.20;99.90;;;;;;6223528;23;20512;-85
2021/05/07 06:39:35;;;;;;;5.20;3.43;;;8.40;99.90;;;;;;6223371;23;20237;-85
2021/05/07 06:42:01;;;;;;;4.20;3.37;;;8.40;99.90;;;;;;6223577;23;20191;-86
2021/05/07 06:44:28;;;;;;;3.88;2.47;;;8.70;99.90;;;;;;6227125;23;20148;-86
2021/05/07 06:46:54;;;;;;;4.85;2.88;;;8.50;99.90;;;;;;6227175;23;20153;-83
2021/05/07 06:49:24;;;;;;;4.00;3.20;;;8.10;99.90;;;;;;6197645;23;20149;-81
2021/05/07 06:51:50;;;;;;;2.35;2.05;;;8.00;99.90;;;;;;6222712;23;20164;-83
2021/05/07 06:54:25;;;;;;;3.72;2.33;;;7.90;99.90;;;;;;6222351;23;20240;-84
2021/05/07 06:56:51;;;;;;;3.00;2.58;;;8.10;99.90;;;;;;6223465;23;20135;-86
2021/05/07 06:59:18;;;;;;;4.10;2.83;;;7.70;99.90;;;;;;6222467;23;20157;-87
2021/05/07 07:01:44;;;;;;;5.30;3.15;;;7.90;99.90;;;;;;6222451;23;20172;-85
2021/05/07 07:04:09;;;;;;;4.20;2.23;;;8.00;99.90;;;;;;6177298;23;20149;-86
2021/05/07 07:06:35;;;;;;;10.07;2.63;;;8.20;99.90;;;;;;6226228;23;20180;-85
2021/05/07 07:09:08;;;;;;;3.27;2.17;;;8.10;99.90;;;;;;6226062;23;20176;-85
2021/05/07 07:11:49;;;;;;;4.03;2.72;;;8.00;99.90;;;;;;6230633;23;20168;-83
2021/05/07 07:17:09;;;;;;;2.83;2.58;;;7.40;99.90;;;;;;6226283;23;20192;-86
2021/05/07 07:19:35;;;;;;;3.25;2.40;;;7.50;99.90;;;;;;6202280;23;20136;-82
2021/05/07 07:22:10;;;;;;;11.48;3.40;;;7.40;99.90;;;;;;6222656;23;20204;-84
2021/05/07 07:24:36;;;;;;;3.40;2.42;;;7.40;99.90;;;;;;6199598;23;20136;-84
2021/05/07 07:27:02;;;;;;;6.03;2.57;;;;;;;;;;6197613;23;20165;-83
2021/05/07 07:29:27;;;;;;;2.88;2.30;;;6.90;99.90;;;;;;6224498;23;20141;-82
2021/05/07 07:31:53;;;;;;;2.93;2.37;;;6.50;99.90;;;;;;6223310;23;20227;-84
2021/05/07 07:34:19;;;;;;;4.47;2.67;;;6.60;99.90;;;;;;6223888;23;20165;-83
2021/05/07 07:36:45;;;;;;;3.17;2.20;;;6.30;99.90;;;;;;6198539;23;20195;-82
2021/05/07 07:39:13;;;;;;;3.15;2.45;;;6.20;99.90;;;;;;6224332;23;20145;-84
2021/05/07 07:41:39;;;;;;;1.60;1.50;;;6.20;99.90;;;;;;6223907;23;20225;-86
2021/05/07 07:44:05;;;;;;;3.57;2.47;;;6.10;99.90;;;;;;6224581;23;20579;-85
2021/05/07 07:46:31;;;;;;;5.43;2.88;;;6.40;99.90;;;;;;6220949;23;20235;-82
2021/05/07 07:48:56;;;;;;;2.50;2.30;;;6.50;99.90;;;;;;6221835;23;20665;-82
2021/05/07 07:51:22;;;;;;;3.97;2.67;;;6.40;99.90;;;;;;6219554;23;20161;-82
2021/05/07 07:53:48;;;;;;;2.63;2.28;;;6.30;99.90;;;;;;6219038;23;20375;-81
2021/05/07 07:56:14;;;;;;;6.10;2.80;;;6.10;99.90;;;;;;6218219;23;20145;-82
2021/05/07 07:58:39;;;;;;;2.10;1.90;;;6.10;99.90;;;;;;6194126;23;20156;-82
2021/05/07 08:01:05;;;;;;;2.90;2.70;;;6.00;99.90;;;;;;6220195;23;20199;-82
2021/05/07 08:03:33;;;;;;;3.57;2.73;;;6.10;99.90;;;;;;6222940;23;20160;-82
2021/05/07 08:05:59;;;;;;;3.35;2.70;;;6.00;99.90;;;;;;6218419;23;20149;-82
2021/05/07 08:08:25;;;;;;;4.83;2.63;;;5.70;99.90;;;;;;6219530;23;20165;-82
2021/05/07 08:10:50;;;;;;;2.47;1.80;;;5.70;99.90;;;;;;6217122;23;20172;-83
2021/05/07 08:13:18;;;;;;;2.60;2.40;;;5.60;99.90;;;;;;6193568;23;20380;-82
2021/05/07 08:15:47;;;;;;;2.90;2.05;;;5.60;99.90;;;;;;6222009;23;20436;-82
2021/05/07 08:18:13;;;;;;;3.47;2.65;;;5.50;99.90;;;;;;6221433;23;20180;-81
2021/05/07 08:20:39;;;;;;;3.15;2.30;;;5.60;99.90;;;;;;6217850;23;20199;-82
2021/05/07 08:23:05;;;;;;;10.47;2.90;;;5.60;99.90;;;;;;6199371;23;20494;-82
2021/05/07 08:25:30;;;;;;;9.70;2.80;;;5.60;99.90;;;;;;6198043;23;20157;-82
2021/05/07 08:27:56;;;;;;;3.83;2.80;;;5.80;99.90;;;;;;6224315;23;20709;-81
2021/05/07 08:30:22;;;;;;;3.00;2.60;;;5.90;99.90;;;;;;6223328;23;20164;-81
2021/05/07 08:32:47;;;;;;;6.13;3.10;;;5.90;99.90;;;;;;6223858;23;20208;-82
2021/05/07 08:35:13;;;;;;;5.10;3.13;;;6.10;99.90;;;;;;6221474;23;20361;-83
2021/05/07 08:37:48;;;;;;;4.10;2.30;;;6.20;99.90;;;;;;6224699;23;20164;-82
2021/05/07 08:40:16;;;;;;;3.28;2.72;;;6.10;99.90;;;;;;6224748;23;20152;-84
2021/05/07 08:42:42;;;;;;;2.30;2.10;;;5.90;99.90;;;;;;6225651;23;20149;-82
2021/05/07 08:45:14;;;;;;;4.03;2.78;;;5.70;99.90;;;;;;6224610;23;20163;-83
2021/05/07 08:47:52;;;;;;;3.42;2.42;;;5.60;99.90;;;;;;6226307;23;20173;-85
2021/05/07 08:50:18;;;;;;;2.90;2.60;;;5.60;99.90;;;;;;6200585;23;20203;-84
2021/05/07 08:52:43;;;;;;;6.73;2.60;;;5.70;99.90;;;;;;6226364;23;20152;-85
2021/05/07 08:55:09;;;;;;;3.60;2.83;;;5.70;99.90;;;;;;6226222;23;20145;-84
2021/05/07 08:57:36;;;;;;;2.55;1.70;;;5.70;99.90;;;;;;6225499;23;20144;-88
2021/05/07 09:00:06;;;;;;;3.22;2.10;;;5.60;99.90;;;;;;6206847;23;20163;-86
2021/05/07 09:02:34;;;;;;;1.58;1.48;;;5.70;99.90;;;;;;6232742;23;20149;-86
2021/05/07 09:05:08;;;;;;;1.80;1.70;;;5.70;99.90;;;;;;6233834;23;20771;-88
2021/05/07 09:07:36;;;;;;;2.30;1.92;;;5.50;99.90;;;;;;6234297;23;20167;-85
2021/05/07 09:10:36;;;;;;;2.30;1.90;;;5.80;99.90;;;;;;6232743;23;20153;-86
2021/05/07 09:13:16;;;;;;;1.40;1.30;;;6.10;99.90;;;;;;6234206;23;20124;-86
2021/05/07 09:15:48;;;;;;;2.00;1.80;;;5.70;99.90;;;;;;6204675;23;20137;-86
2021/05/07 09:18:15;;;;;;;4.10;2.08;;;5.90;99.90;;;;;;6230906;23;20171;-86
2021/05/07 09:20:43;;;;;;;2.70;1.83;;;6.40;99.90;;;;;;6232880;23;20165;-85
2021/05/07 09:23:17;;;;;;;1.90;1.40;;;6.60;99.90;;;;;;6206327;23;20248;-86
2021/05/07 09:25:47;;;;;;;1.40;1.30;;;6.90;99.90;;;;;;6207951;23;20180;-85
2021/05/07 09:28:17;;;;;;;1.60;1.50;;;6.70;99.90;;;;;;6233995;23;20165;-86
2021/05/07 09:30:44;;;;;;;1.67;1.50;;;6.70;99.90;;;;;;6205377;23;20192;-88
2021/05/07 09:33:14;;;;;;;3.30;2.38;;;6.60;99.90;;;;;;6208551;23;20187;-85
2021/05/07 09:35:47;;;;;;;2.25;2.03;;;6.70;99.90;;;;;;6210844;23;20145;-85
2021/05/07 09:38:18;;;;;;;2.08;1.85;;;6.80;99.90;;;;;;6209216;23;20176;-87
2021/05/07 09:40:44;;;;;;;2.72;2.47;;;6.80;99.90;;;;;;6208825;23;20172;-85
2021/05/07 09:43:13;;;;;;;2.35;2.10;;;6.80;99.90;;;;;;6234014;23;20230;-84
2021/05/07 09:45:43;;;;;;;2.47;1.90;;;6.10;99.90;;;;;;6207943;23;20151;-84
2021/05/07 09:48:24;;;;;;;2.53;2.25;;;6.00;99.90;;;;;;6236556;23;20172;-86
2021/05/07 09:50:55;;;;;;;4.28;2.70;;;6.00;99.90;;;;;;6209633;23;20255;-86
2021/05/07 09:53:25;;;;;;;2.72;2.22;;;6.20;99.90;;;;;;6208542;23;20133;-85
2021/05/07 09:55:56;;;;;;;2.97;2.50;;;6.30;99.90;;;;;;6236326;23;20163;-85
2021/05/07 09:58:24;;;;;;;3.75;3.10;;;6.50;99.90;;;;;;6209583;23;20159;-86
2021/05/07 10:00:50;;;;;;;3.28;2.22;;;6.60;99.90;;;;;;6233743;23;20168;-86
2021/05/07 10:03:17;;;;;;;1.80;1.53;;;6.80;99.90;;;;;;6208747;23;20275;-86
2021/05/07 10:05:43;;;;;;;1.75;1.65;;;6.80;99.90;;;;;;6234299;23;20426;-86
2021/05/07 10:08:09;;;;;;;2.63;1.80;;;7.20;99.90;;;;;;6233741;23;20180;-85
2021/05/07 10:10:50;;;;;;;3.90;1.90;;;7.30;99.90;;;;;;6208855;23;20396;-85
2021/05/07 10:13:38;;;;;;;3.42;2.35;;;7.40;99.90;;;;;;6211400;23;20368;-84
2021/05/07 10:16:09;;;;;;;3.47;1.85;;;7.50;99.90;;;;;;6212611;23;20159;-86
2021/05/07 10:18:38;;;;;;;2.85;2.13;;;7.60;99.90;;;;;;6201521;23;20183;-86
2021/05/07 10:21:38;;;;;;;5.93;2.60;;;7.50;99.90;;;;;;6209165;23;20180;-86
2021/05/07 10:24:05;;;;;;;3.38;2.55;;;7.50;99.90;;;;;;6210495;23;20176;-85
2021/05/07 10:30:06;;;;;;;3.55;2.65;;;7.80;99.90;;;;;;6233003;23;20183;-86
2021/05/07 10:33:16;;;;;;;3.30;2.67;;;7.20;99.90;;;;;;6199305;23;20136;-85
2021/05/07 10:36:17;;;;;;;3.20;2.28;;;7.50;99.90;;;;;;6208906;23;20149;-85
2021/05/07 10:38:53;;;;;;;1.90;1.70;;;7.70;99.90;;;;;;6233343;23;20164;-85
2021/05/07 10:41:19;;;;;;;3.10;2.20;;;7.90;99.90;;;;;;6235429;23;20164;-87
2021/05/07 10:43:46;;;;;;;2.87;2.30;;;8.10;99.90;;;;;;6234567;23;20155;-86
2021/05/07 10:49:44;;;;;;;2.50;2.30;;;8.40;99.90;;;;;;6232512;23;20209;-86
2021/05/07 10:52:18;;;;;;;2.88;2.60;;;8.40;99.90;;;;;;6202787;23;20201;-85
2021/05/07 10:54:54;;;;;;;2.40;2.20;;;8.60;99.90;;;;;;6206892;23;20141;-85
2021/05/07 10:57:28;;;;;;;5.53;2.33;;;8.90;99.90;;;;;;6204968;23;20231;-84
2021/05/07 11:00:16;;;;;;;1.98;1.88;;;9.00;99.90;;;;;;6229924;23;20144;-84
2021/05/07 11:02:51;;;;;;;2.50;2.30;;;9.00;99.90;;;;;;6233951;23;20137;-84
2021/05/07 11:06:03;;;;;;;3.63;2.80;;;9.50;99.90;;;;;;6206933;23;20190;-87
2021/05/07 11:08:32;;;;;;;4.10;2.80;;;9.50;99.90;;;;;;6137917;23;20190;-86
2021/05/07 11:10:58;;;;;;;8.48;2.45;;;9.60;99.90;;;;;;6137902;23;20211;-86
2021/05/07 11:13:24;;;;;;;4.80;2.10;;;9.70;99.90;;;;;;6190928;23;20228;-84
2021/05/07 11:15:57;;;;;;;2.95;2.30;;;9.60;99.90;;;;;;6236871;23;20153;-84
2021/05/07 11:18:32;;;;;;;1.90;1.80;;;8.70;99.90;;;;;;6233848;23;20217;-87
2021/05/07 11:20:58;;;;;;;3.17;2.63;;;9.10;99.90;;;;;;6240075;23;20176;-87
2021/05/07 11:23:30;;;;;;;3.05;2.70;;;9.30;99.90;;;;;;6212633;23;20165;-86
2021/05/07 11:26:07;;;;;;;3.03;2.45;;;9.50;99.90;;;;;;6236389;23;20141;-88
2021/05/07 11:28:43;;;;;;;3.28;2.60;;;9.20;99.90;;;;;;6236350;23;20168;-87
2021/05/07 11:31:10;;;;;;;4.30;2.88;;;9.30;99.90;;;;;;6209787;23;20168;-87
2021/05/07 11:33:36;;;;;;;7.25;2.60;;;9.60;99.90;;;;;;6209584;23;20145;-88
2021/05/07 11:36:13;;;;;;;3.07;2.27;;;9.80;99.90;;;;;;6236085;23;20590;-88
2021/05/07 11:38:40;;;;;;;7.82;3.13;;;9.70;99.90;;;;;;6235441;23;20364;-86
2021/05/07 11:41:23;;;;;;;4.15;2.70;;;9.90;99.90;;;;;;6236414;23;20176;-90
2021/05/07 11:43:50;;;;;;;4.05;2.25;;;9.90;99.90;;;;;;6234431;23;20137;-86
2021/05/07 11:46:17;;;;;;;2.90;2.60;;;9.70;99.90;;;;;;6233423;23;20149;-88
2021/05/07 11:48:47;;;;;;;3.08;2.60;;;9.90;99.90;;;;;;6229955;23;20181;-85
2021/05/07 11:51:17;;;;;;;3.72;1.88;;;10.10;99.90;;;;;;6234017;23;20226;-85
2021/05/07 11:53:43;;;;;;;3.10;2.75;;;10.10;99.90;;;;;;6209610;23;20148;-87
2021/05/07 11:56:22;;;;;;;3.55;3.15;;;9.90;99.90;;;;;;6209587;23;20140;-85
2021/05/07 11:58:53;;;;;;;2.75;2.30;;;10.20;99.90;;;;;;6208643;23;20152;-86
2021/05/07 12:01:20;;;;;;;4.13;2.90;;;10.10;99.90;;;;;;6233580;23;20165;-87
2021/05/07 12:03:47;;;;;;;5.97;2.15;;;9.60;99.90;;;;;;6233778;23;20145;-85
2021/05/07 12:06:51;;;;;;;3.67;2.33;;;9.70;99.90;;;;;;6235827;23;20149;-84
2021/05/07 12:09:20;;;;;;;3.70;2.70;;;10.10;99.90;;;;;;6209359;23;20176;-86
2021/05/07 12:12:02;;;;;;;3.20;2.10;;;10.20;99.90;;;;;;6233027;23;20164;-84
2021/05/07 12:14:48;;;;;;;4.00;2.90;;;10.10;99.90;;;;;;6206630;23;20148;-86
2021/05/07 12:17:18;;;;;;;5.00;4.55;;;10.10;99.90;;;;;;6207334;23;20573;-87
2021/05/07 12:19:57;;;;;;;3.95;3.13;;;9.90;99.90;;;;;;6205961;23;20141;-84
2021/05/07 12:22:23;;;;;;;3.05;2.65;;;9.90;99.90;;;;;;6231261;23;20171;-84
2021/05/07 12:24:51;;;;;;;4.20;2.63;;;10.00;99.90;;;;;;6234999;23;20200;-86
2021/05/07 12:27:32;;;;;;;10.88;2.90;;;10.10;99.90;;;;;;6232848;23;20176;-87
2021/05/07 12:29:58;;;;;;;2.35;1.80;;;10.20;99.90;;;;;;6208411;23;20137;-85
2021/05/07 12:32:24;;;;;;;2.10;1.90;;;9.70;99.90;;;;;;6234430;23;20163;-85
2021/05/07 12:34:58;;;;;;;2.60;1.47;;;9.20;99.90;;;;;;6234666;23;20152;-84
2021/05/07 12:37:24;;;;;;;3.85;1.80;;;9.10;99.90;;;;;;6234162;23;20352;-86
2021/05/07 12:39:49;;;;;;;4.00;1.50;;;9.00;99.90;;;;;;6235314;23;20180;-86
2021/05/07 12:42:15;;;;;;;1.60;1.50;;;9.10;99.90;;;;;;6236776;23;20223;-86
2021/05/07 12:44:40;;;;;;;2.00;1.67;;;9.20;99.90;;;;;;6235275;23;20169;-86
2021/05/07 12:47:06;;;;;;;2.13;1.93;;;9.40;99.90;;;;;;6234855;23;20149;-86
2021/05/07 12:49:32;;;;;;;4.07;2.00;;;9.10;99.90;;;;;;6234324;23;20583;-87
2021/05/07 12:52:01;;;;;;;2.90;1.63;;;9.40;99.90;;;;;;6209693;23;20255;-86
2021/05/07 12:54:27;;;;;;;2.72;1.58;;;9.60;99.90;;;;;;6209532;23;20152;-86
2021/05/07 12:56:53;;;;;;;2.57;1.90;;;9.50;99.90;;;;;;6234122;23;20244;-84
2021/05/07 12:59:21;;;;;;;2.23;1.70;;;9.10;99.90;;;;;;6234047;23;20144;-85
2021/05/07 13:01:49;;;;;;;11.73;2.15;;;9.30;99.90;;;;;;6208170;23;20395;-87
2021/05/07 13:04:15;;;;;;;2.55;1.85;;;9.40;99.90;;;;;;6234920;23;20145;-88
2021/05/07 13:06:40;;;;;;;3.20;1.83;;;9.50;99.90;;;;;;6234951;23;20163;-88
2021/05/07 13:09:06;;;;;;;2.20;1.63;;;9.60;99.90;;;;;;6239022;23;20195;-87
2021/05/07 13:11:32;;;;;;;2.57;1.80;;;9.50;99.90;;;;;;6208778;23;20199;-88
2021/05/07 13:13:57;;;;;;;3.50;1.70;;;9.30;99.90;;;;;;6209839;23;20152;-85
2021/05/07 13:16:23;;;;;;;4.20;2.00;;;9.40;99.90;;;;;;6232205;23;20201;-84
2021/05/07 13:18:56;;;;;;;4.20;1.90;;;9.50;99.90;;;;;;6233555;23;20167;-86
2021/05/07 13:21:22;;;;;;;3.10;2.17;;;9.50;99.90;;;;;;6204467;23;20173;-86